Time;durP1;ratioP1;P1;durP2;ratioP2;P2;SDS_P1;SDS_P2;PMS_P1;PMS_P2;Temp;Humidity;BMP_temperature;BMP_pressure;BME280_temperature;BME280_humidity;BME280_pressure;Samples;Min_cycle;Max_cycle;Signal;HPM_P1;HPM_P2
2022/11/21 00:00:53;;;;;;;24.58;11.13;;;;;;;0.59;59.66;100595.47;6130238;23;20021;-81
2022/11/21 00:03:19;;;;;;;21.23;9.50;;;;;;;0.51;59.93;100571.22;6129976;23;20349;-81
2022/11/21 00:05:49;;;;;;;20.48;9.13;;;;;;;0.47;58.53;100574.44;6105620;23;20045;-81
2022/11/21 00:08:18;;;;;;;23.00;10.35;;;;;;;0.51;59.46;100586.59;6137922;23;20037;-80
2022/11/21 00:10:44;;;;;;;22.73;9.35;;;;;;;0.10;59.42;100542.09;6107003;23;20017;-81
2022/11/21 00:13:15;;;;;;;19.92;9.43;;;;;;;0.01;59.42;100534.84;6129521;23;20076;-81
2022/11/21 00:15:41;;;;;;;22.77;10.38;;;;;;;0.25;59.63;100573.50;6103254;23;20021;-82
2022/11/21 00:18:08;;;;;;;21.70;9.02;;;;;;;0.36;59.59;100570.50;6104191;23;20024;-82
2022/11/21 00:20:35;;;;;;;23.92;9.98;;;;;;;0.53;59.54;100592.66;6127688;23;20022;-80
2022/11/21 00:23:02;;;;;;;25.80;10.73;;;;;;;0.47;59.90;100565.88;6140551;23;20030;-82
2022/11/21 00:25:28;;;;;;;35.78;15.50;;;;;;;0.33;59.55;100521.75;6142188;23;20068;-85
2022/11/21 00:27:54;;;;;;;64.13;24.25;;;;;;;0.56;59.93;100568.84;6138849;23;20022;-81
2022/11/21 00:30:20;;;;;;;44.70;17.92;;;;;;;0.52;59.61;100582.31;6136066;23;20175;-82
2022/11/21 00:32:48;;;;;;;31.98;13.88;;;;;;;0.10;59.60;100507.09;6142958;23;20017;-78
2022/11/21 00:35:13;;;;;;;24.38;10.73;;;;;;;0.17;59.29;100503.13;6140071;23;20427;-80
2022/11/21 00:37:39;;;;;;;26.17;11.02;;;;;;;0.34;59.46;100557.66;6133637;23;20017;-81
2022/11/21 00:40:06;;;;;;;23.40;10.50;;;;;;;0.22;59.47;100555.41;6134940;23;20032;-82
2022/11/21 00:42:32;;;;;;;23.40;10.73;;;;;;;0.36;60.02;100578.19;6133590;23;20053;-80
2022/11/21 00:44:58;;;;;;;20.30;9.50;;;;;;;0.14;59.31;100538.81;6130014;23;20460;-81
2022/11/21 00:47:24;;;;;;;22.10;10.52;;;;;;;0.42;60.12;100579.38;6129148;23;20022;-82
2022/11/21 00:49:59;;;;;;;24.15;9.93;;;;;;;-0.12;59.69;100489.94;6128629;23;20392;-82
2022/11/21 00:52:25;;;;;;;28.23;11.85;;;;;;;0.27;58.79;100591.47;6128859;23;20072;-80
2022/11/21 00:54:51;;;;;;;24.88;10.57;;;;;;;0.07;59.74;100572.66;6129245;23;20096;-82
2022/11/21 00:57:17;;;;;;;23.83;10.52;;;;;;;-0.41;59.48;100479.22;6127812;23;20021;-81
2022/11/21 00:59:43;;;;;;;22.85;11.20;;;;;;;0.02;59.63;100538.28;6154827;23;20025;-78
2022/11/21 01:02:09;;;;;;;25.48;10.75;;;;;;;0.04;59.75;100522.19;6106417;23;20041;-83
2022/11/21 01:04:35;;;;;;;24.02;11.40;;;;;;;0.18;59.98;100538.16;6130882;23;20036;-82
2022/11/21 01:07:02;;;;;;;25.35;9.68;;;;;;;-0.31;59.36;100481.38;6132060;23;20033;-81
2022/11/21 01:09:28;;;;;;;26.80;10.85;;;;;;;-0.14;59.65;100513.66;6080297;23;20022;-82
2022/11/21 01:11:55;;;;;;;22.17;10.15;;;;;;;-0.15;59.01;100535.84;6131114;23;20201;-81
2022/11/21 01:14:21;;;;;;;24.67;10.30;;;;;;;-0.18;60.04;100510.09;6138154;23;20052;-76
2022/11/21 01:16:48;;;;;;;24.98;10.65;;;;;;;-0.52;60.08;100445.47;6147127;23;20014;-80
2022/11/21 01:19:14;;;;;;;27.52;11.13;;;;;;;-0.37;59.57;100483.69;6138252;23;20036;-80
2022/11/21 01:21:40;;;;;;;27.60;11.18;;;;;;;-0.22;59.89;100513.31;6134309;23;20478;-80
2022/11/21 01:24:06;;;;;;;25.30;10.70;;;;;;;-0.07;60.29;100562.63;6151088;23;20061;-81
2022/11/21 01:26:32;;;;;;;24.75;10.10;;;;;;;-0.54;59.63;100467.53;6154380;23;20041;-81
2022/11/21 01:28:59;;;;;;;24.15;10.23;;;;;;;-0.63;59.41;100429.63;6147266;23;20026;-80
2022/11/21 01:31:27;;;;;;;25.25;11.27;;;;;;;-0.01;59.49;100539.88;6139441;23;20029;-80
2022/11/21 01:33:55;;;;;;;25.83;11.57;;;;;;;-0.17;60.08;100514.41;6143302;23;20018;-80
2022/11/21 01:36:26;;;;;;;24.98;10.25;;;;;;;-0.24;60.06;100502.13;6137519;23;20041;-79
2022/11/21 01:38:55;;;;;;;25.30;10.50;;;;;;;-0.09;59.60;100532.69;6165462;23;20073;-82
2022/11/21 01:41:56;;;;;;;27.35;10.43;;;;;;;-0.02;59.62;100525.34;6116843;23;20017;-78
2022/11/21 01:44:25;;;;;;;30.45;10.23;;;;;;;-0.18;59.04;100499.88;6114658;23;20046;-78
2022/11/21 01:46:53;;;;;;;27.63;10.25;;;;;;;-0.80;60.31;100393.06;6114072;23;20014;-78
2022/11/21 01:49:29;;;;;;;23.95;9.70;;;;;;;-0.28;60.10;100513.91;6138196;23;20032;-80
2022/11/21 01:52:10;;;;;;;23.33;10.02;;;;;;;-0.26;59.74;100494.41;6148706;23;20017;-81
2022/11/21 01:54:36;;;;;;;23.77;10.23;;;;;;;-0.28;59.82;100502.78;6152930;23;20018;-81
2022/11/21 01:57:11;;;;;;;22.58;10.20;;;;;;;-0.31;60.47;100504.41;6151390;23;20069;-81
2022/11/21 01:59:48;;;;;;;21.70;9.48;;;;;;;-0.57;60.45;100463.97;6127342;23;20018;-79
2022/11/21 02:02:17;;;;;;;22.00;9.77;;;;;;;-0.52;60.35;100475.28;6152239;23;20037;-79
2022/11/21 02:04:44;;;;;;;25.27;10.25;;;;;;;-0.59;59.87;100465.59;6126686;23;20054;-79
2022/11/21 02:07:12;;;;;;;24.50;10.07;;;;;;;-0.65;60.18;100464.47;6151973;23;20057;-82
2022/11/21 02:09:44;;;;;;;22.15;10.00;;;;;;;-0.61;60.42;100493.63;6134132;23;20097;-80
2022/11/21 02:12:24;;;;;;;21.52;10.27;;;;;;;-0.75;59.49;100482.72;6129594;23;20017;-81
2022/11/21 02:15:10;;;;;;;21.92;9.52;;;;;;;-0.83;60.40;100494.28;6108257;23;20105;-82
2022/11/21 02:17:37;;;;;;;22.98;9.40;;;;;;;-0.90;60.00;100490.56;6131042;23;20018;-80
2022/11/21 02:20:09;;;;;;;23.35;9.77;;;;;;;-0.67;60.20;100534.25;6153889;23;20021;-80
2022/11/21 02:22:58;;;;;;;20.40;9.35;;;;;;;-0.66;59.89;100506.19;6102928;23;20022;-82
2022/11/21 02:25:34;;;;;;;18.50;8.63;;;;;;;-1.00;60.63;100447.47;6128897;23;20037;-79
2022/11/21 02:28:05;;;;;;;21.65;9.30;;;;;;;-0.63;61.07;100495.22;6131629;23;20029;-82
2022/11/21 02:30:35;;;;;;;21.43;8.63;;;;;;;-1.11;60.61;100418.84;6130607;23;20364;-84
2022/11/21 02:33:01;;;;;;;25.45;10.10;;;;;;;-0.97;60.03;100468.91;6132579;23;20427;-80
2022/11/21 02:35:27;;;;;;;21.40;8.85;;;;;;;-1.15;60.66;100430.59;6131894;23;20026;-82
2022/11/21 02:38:01;;;;;;;22.15;8.73;;;;;;;-0.92;60.42;100464.91;6132797;23;20014;-81
2022/11/21 02:40:33;;;;;;;21.80;9.10;;;;;;;-0.99;59.91;100490.09;6104187;23;20026;-82
2022/11/21 02:43:09;;;;;;;22.52;8.90;;;;;;;-1.02;60.47;100480.63;6133137;23;20022;-79
2022/11/21 02:45:40;;;;;;;22.40;9.27;;;;;;;-1.10;60.94;100457.22;6174268;23;20009;-79
2022/11/21 02:48:07;;;;;;;21.30;8.00;;;;;;;-0.91;61.35;100484.56;6139264;23;20018;-84
2022/11/21 02:50:41;;;;;;;16.63;7.95;;;;;;;-0.95;60.21;100482.66;6128248;23;20077;-81
2022/11/21 02:53:17;;;;;;;19.98;8.93;;;;;;;-0.98;60.95;100472.28;6104547;23;20017;-79
2022/11/21 02:55:43;;;;;;;21.23;9.13;;;;;;;-0.83;60.63;100484.06;6128767;23;20021;-82
2022/11/21 02:58:11;;;;;;;21.10;9.45;;;;;;;-0.76;60.67;100478.41;6129450;23;20018;-79
2022/11/21 03:00:40;;;;;;;24.27;9.88;;;;;;;-0.79;60.26;100474.03;6129097;23;20025;-81
2022/11/21 03:03:06;;;;;;;23.80;11.43;;;;;;;-0.77;60.86;100476.66;6155258;23;20014;-84
2022/11/21 03:05:32;;;;;;;24.58;11.02;;;;;;;-0.85;59.78;100478.00;6132967;23;20018;-82
2022/11/21 03:07:58;;;;;;;30.08;13.85;;;;;;;-1.00;60.80;100461.13;6105917;23;20021;-80
2022/11/21 03:10:25;;;;;;;32.17;13.95;;;;;;;-1.13;60.79;100487.75;6126265;23;20028;-81
2022/11/21 03:12:59;;;;;;;29.17;12.48;;;;;;;-1.12;60.34;100483.50;6127507;23;20021;-82
2022/11/21 03:15:30;;;;;;;29.02;12.48;;;;;;;-1.56;60.75;100432.84;6125813;23;20018;-80
2022/11/21 03:17:57;;;;;;;26.33;11.30;;;;;;;-1.28;60.72;100453.78;6127025;23;20014;-82
2022/11/21 03:20:26;;;;;;;28.58;12.25;;;;;;;-1.18;60.16;100473.88;6127285;23;20037;-82
2022/11/21 03:22:52;;;;;;;27.98;12.30;;;;;;;-1.13;60.72;100468.97;6130748;23;20014;-79
2022/11/21 03:25:18;;;;;;;27.58;10.85;;;;;;;-1.27;61.00;100432.53;6130317;23;20097;-81
2022/11/21 03:27:44;;;;;;;28.42;12.18;;;;;;;-1.26;60.18;100470.03;6129626;23;20073;-81
2022/11/21 03:30:11;;;;;;;32.72;12.32;;;;;;;-1.45;60.89;100442.75;6128188;23;20017;-81
2022/11/21 03:32:38;;;;;;;34.47;12.77;;;;;;;-1.55;60.31;100418.44;6129727;23;20037;-80
2022/11/21 03:35:05;;;;;;;34.80;13.90;;;;;;;-1.27;61.00;100465.75;6152196;23;20495;-84
2022/11/21 03:37:31;;;;;;;31.05;13.80;;;;;;;-1.42;61.25;100455.63;6128153;23;20174;-82
2022/11/21 03:39:57;;;;;;;32.72;13.23;;;;;;;-1.17;61.63;100469.63;6127696;23;20022;-83
2022/11/21 03:42:23;;;;;;;28.55;12.02;;;;;;;-1.05;61.24;100477.91;6128697;23;20380;-79
2022/11/21 03:44:49;;;;;;;29.02;12.30;;;;;;;-1.13;61.36;100453.66;6126986;23;20065;-81
2022/11/21 03:47:15;;;;;;;27.40;11.20;;;;;;;-0.87;61.42;100485.56;6127458;23;20081;-83
2022/11/21 03:49:41;;;;;;;26.85;11.82;;;;;;;-1.15;60.77;100447.59;6121571;23;20017;-81
2022/11/21 03:52:07;;;;;;;28.10;11.15;;;;;;;-1.12;61.53;100434.97;6153152;23;20083;-80
2022/11/21 03:54:33;;;;;;;28.75;10.98;;;;;;;-0.82;60.64;100483.25;6152711;23;20010;-81
2022/11/21 03:56:59;;;;;;;26.30;11.07;;;;;;;-0.95;61.06;100457.09;6137702;23;20495;-82
2022/11/21 03:59:25;;;;;;;26.27;11.65;;;;;;;-0.83;61.00;100461.06;6130214;23;20420;-79
2022/11/21 04:01:50;;;;;;;27.73;11.02;;;;;;;-0.69;61.11;100483.03;6106278;23;20022;-77
2022/11/21 04:04:17;;;;;;;24.85;10.10;;;;;;;-0.78;60.65;100475.81;6141919;23;20097;-79
2022/11/21 04:06:44;;;;;;;27.65;10.35;;;;;;;-1.02;61.17;100432.06;6111466;23;20108;-81
2022/11/21 04:09:10;;;;;;;29.75;11.07;;;;;;;-1.12;60.46;100414.53;6130827;23;20017;-80
2022/11/21 04:11:37;;;;;;;29.77;11.68;;;;;;;-1.02;60.97;100426.06;6132260;23;20010;-82
2022/11/21 04:14:02;;;;;;;25.77;11.32;;;;;;;-0.96;61.24;100449.38;6167720;23;20063;-79
2022/11/21 04:16:28;;;;;;;23.13;10.63;;;;;;;-0.96;61.35;100439.16;6142280;23;20013;-82
2022/11/21 04:18:54;;;;;;;26.30;10.65;;;;;;;-1.03;60.60;100415.00;6089639;23;20018;-80
2022/11/21 04:21:21;;;;;;;29.75;10.65;;;;;;;-0.81;60.38;100446.69;6137220;23;20025;-83
2022/11/21 04:23:48;;;;;;;29.55;12.20;;;;;;;-0.98;60.70;100412.66;6106656;23;20021;-79
2022/11/21 04:26:17;;;;;;;30.75;12.30;;;;;;;-0.65;60.18;100472.16;6129384;23;20029;-83
2022/11/21 04:28:50;;;;;;;24.45;10.02;;;;;;;-0.62;60.30;100466.28;6133186;23;20022;-79
2022/11/21 04:31:16;;;;;;;26.73;11.00;;;;;;;-0.60;60.27;100469.81;6130216;23;20028;-84
2022/11/21 04:33:42;;;;;;;27.98;10.80;;;;;;;-0.72;60.40;100469.22;6104617;23;20132;-81
2022/11/21 04:36:09;;;;;;;25.67;10.60;;;;;;;-1.29;60.14;100383.94;6148693;23;20029;-80
2022/11/21 04:38:35;;;;;;;24.20;10.70;;;;;;;-0.81;60.81;100456.91;6142737;23;20033;-78
2022/11/21 04:41:01;;;;;;;22.83;9.93;;;;;;;-0.76;60.83;100479.31;6104422;23;20080;-81
2022/11/21 04:43:27;;;;;;;24.48;10.38;;;;;;;-0.96;60.62;100419.56;6133106;23;20370;-79
2022/11/21 04:45:53;;;;;;;23.27;10.77;;;;;;;-0.69;60.12;100465.13;6109493;23;20014;-79
2022/11/21 04:48:20;;;;;;;26.10;10.40;;;;;;;-0.66;60.27;100456.75;6132528;23;20080;-81
2022/11/21 04:50:45;;;;;;;30.10;12.05;;;;;;;-0.58;60.09;100449.44;6132210;23;20018;-80
2022/11/21 04:53:12;;;;;;;23.50;10.20;;;;;;;-0.54;60.04;100433.41;6156777;23;20639;-80
2022/11/21 04:55:38;;;;;;;24.00;9.98;;;;;;;-0.51;60.14;100428.44;6106649;23;20014;-80
2022/11/21 04:58:04;;;;;;;24.92;10.43;;;;;;;-0.61;60.14;100428.03;6136406;23;20025;-79
2022/11/21 05:00:30;;;;;;;27.08;10.50;;;;;;;-0.70;60.16;100421.63;6132478;23;20014;-79
2022/11/21 05:03:04;;;;;;;27.63;10.95;;;;;;;-0.74;60.39;100418.03;6129235;23;20417;-78
2022/11/21 05:05:31;;;;;;;29.55;11.25;;;;;;;-0.69;60.25;100434.47;6129489;23;20109;-78
2022/11/21 05:07:57;;;;;;;28.15;10.75;;;;;;;-0.69;60.10;100419.13;6100919;23;20018;-79
2022/11/21 05:10:23;;;;;;;21.92;9.80;;;;;;;-0.62;60.56;100430.50;6100948;23;20021;-79
2022/11/21 05:15:43;;;;;;;20.48;10.07;;;;;;;-0.87;60.14;100413.16;6125919;23;20448;-79
2022/11/21 05:18:11;;;;;;;26.63;10.80;;;;;;;-0.91;60.70;100417.25;6127224;23;20360;-80
2022/11/21 05:20:38;;;;;;;23.77;10.45;;;;;;;-0.97;60.29;100430.59;6127643;23;20022;-79
2022/11/21 05:23:04;;;;;;;24.52;10.98;;;;;;;-0.94;60.46;100435.84;6127646;23;20014;-80
2022/11/21 05:25:30;;;;;;;23.92;11.10;;;;;;;-0.99;60.38;100419.41;6127429;23;20048;-80
2022/11/21 05:27:56;;;;;;;25.08;9.68;;;;;;;-0.91;60.15;100437.69;6125537;23;20025;-78
2022/11/21 05:30:22;;;;;;;25.17;10.82;;;;;;;-0.83;60.70;100455.94;6127306;23;20022;-82
2022/11/21 05:32:49;;;;;;;23.88;10.00;;;;;;;-1.08;60.75;100403.66;6150378;23;20025;-78
2022/11/21 05:35:14;;;;;;;29.40;10.88;;;;;;;-0.86;59.39;100445.56;6126000;23;20018;-79
2022/11/21 05:37:40;;;;;;;24.33;10.38;;;;;;;-0.83;60.00;100453.38;6128066;23;20413;-80
2022/11/21 05:40:07;;;;;;;25.80;10.25;;;;;;;-0.81;60.70;100444.97;6128346;23;20026;-80
2022/11/21 05:45:17;;;;;;;25.90;10.60;;;;;;;-1.07;60.40;100387.53;6141055;23;20017;-77
2022/11/21 05:47:43;;;;;;;26.15;10.52;;;;;;;-0.65;60.22;100459.38;6131951;23;20364;-83
2022/11/21 05:50:09;;;;;;;25.20;10.73;;;;;;;-0.80;60.70;100418.63;6101569;23;20103;-78
2022/11/21 05:52:35;;;;;;;26.10;11.35;;;;;;;-0.82;60.10;100389.56;6101658;23;20499;-80
2022/11/21 05:55:01;;;;;;;36.55;15.13;;;;;;;-1.25;58.80;100352.66;6132742;23;20081;-78
2022/11/21 05:57:30;;;;;;;38.88;15.63;;;;;;;-0.98;59.88;100390.50;6137208;23;20097;-80
2022/11/21 05:59:56;;;;;;;41.83;17.25;;;;;;;-0.99;59.70;100419.41;6133767;23;20014;-79
2022/11/21 06:05:07;;;;;;;34.70;14.25;;;;;;;-1.14;60.12;100373.59;6125957;23;20017;-81
2022/11/21 06:07:33;;;;;;;55.95;19.05;;;;;;;-0.85;60.55;100417.53;6100794;23;20034;-78
2022/11/21 06:09:59;;;;;;;36.60;14.38;;;;;;;-0.77;60.76;100415.31;6150542;23;20048;-78
2022/11/21 06:12:25;;;;;;;22.58;9.27;;;;;;;-0.82;59.54;100419.38;6128002;23;20072;-79
2022/11/21 06:14:51;;;;;;;22.42;9.88;;;;;;;-1.10;59.39;100426.56;6120628;23;20018;-78
2022/11/21 06:17:17;;;;;;;23.08;10.13;;;;;;;-1.19;60.75;100428.69;6149281;23;20010;-79
2022/11/21 06:19:42;;;;;;;23.50;10.60;;;;;;;-1.01;60.74;100421.06;6126648;23;20021;-78
2022/11/21 06:22:09;;;;;;;28.50;13.02;;;;;;;-0.86;59.77;100415.75;6131657;23;20460;-81
2022/11/21 06:24:37;;;;;;;27.33;12.60;;;;;;;-1.06;60.47;100381.63;6126684;23;20075;-80
2022/11/21 06:27:03;;;;;;;23.55;11.50;;;;;;;-0.87;59.18;100400.38;6099821;23;20026;-79
2022/11/21 06:29:29;;;;;;;23.85;11.40;;;;;;;-0.83;60.07;100405.69;6125047;23;20693;-79
2022/11/21 06:31:55;;;;;;;25.80;11.27;;;;;;;-0.61;60.75;100417.81;6126563;23;20404;-78
2022/11/21 06:34:21;;;;;;;23.85;11.30;;;;;;;-0.54;60.38;100413.84;6125765;23;20022;-81
2022/11/21 06:36:48;;;;;;;21.60;10.13;;;;;;;-0.70;59.70;100391.81;6131619;23;20021;-79
2022/11/21 06:39:14;;;;;;;31.80;15.98;;;;;;;-0.63;60.05;100398.06;6108483;23;20017;-77
2022/11/21 06:41:40;;;;;;;27.88;12.73;;;;;;;-0.58;59.72;100411.09;6101577;23;20113;-79
2022/11/21 06:44:06;;;;;;;23.17;9.90;;;;;;;-0.59;59.66;100399.09;6101236;23;20468;-81
2022/11/21 06:46:32;;;;;;;18.17;8.48;;;;;;;-0.61;59.18;100389.69;6125522;23;20024;-80
2022/11/21 06:48:58;;;;;;;19.88;9.15;;;;;;;-0.49;58.97;100417.50;6125073;23;20415;-81
2022/11/21 06:51:24;;;;;;;19.27;10.23;;;;;;;-0.54;59.37;100408.72;6125375;23;20013;-81
2022/11/21 06:53:56;;;;;;;19.85;9.65;;;;;;;-0.66;58.88;100403.06;6125227;23;20036;-81
2022/11/21 06:56:23;;;;;;;23.60;10.70;;;;;;;-0.57;59.53;100405.16;6126605;23;20119;-80
2022/11/21 06:58:49;;;;;;;20.30;9.45;;;;;;;-0.56;59.54;100405.22;6124740;23;20250;-79
2022/11/21 07:01:15;;;;;;;19.92;8.23;;;;;;;-0.78;59.21;100375.25;6126659;23;20030;-79
2022/11/21 07:03:41;;;;;;;18.58;8.32;;;;;;;-0.79;58.54;100378.63;6125168;23;20093;-79
2022/11/21 07:06:07;;;;;;;20.73;8.88;;;;;;;-0.70;59.52;100396.06;6124747;23;20041;-77
2022/11/21 07:08:35;;;;;;;21.88;10.02;;;;;;;-0.69;59.31;100396.13;6129647;23;20041;-78
2022/11/21 07:11:04;;;;;;;25.50;10.60;;;;;;;-0.57;59.58;100392.38;6106426;23;20018;-78
2022/11/21 07:13:31;;;;;;;21.92;10.70;;;;;;;-0.37;59.80;100424.84;6146380;23;20025;-80
2022/11/21 07:16:02;;;;;;;24.70;11.57;;;;;;;-0.71;59.58;100349.16;6086545;23;20108;-79
2022/11/21 07:18:28;;;;;;;20.88;10.32;;;;;;;-0.36;58.12;100431.72;6132045;23;20014;-81
2022/11/21 07:21:02;;;;;;;23.38;10.73;;;;;;;-0.47;59.36;100436.34;6151129;23;20025;-82
2022/11/21 07:23:29;;;;;;;24.42;10.52;;;;;;;-0.33;59.04;100423.31;6127369;23;20068;-81
2022/11/21 07:26:00;;;;;;;20.73;9.88;;;;;;;-0.14;58.81;100427.56;6106024;23;20021;-80
2022/11/21 07:28:28;;;;;;;23.25;10.18;;;;;;;-0.80;59.05;100303.59;6136054;23;20021;-79
2022/11/21 07:30:56;;;;;;;20.92;9.95;;;;;;;-0.31;59.44;100394.41;6137359;23;20393;-81
2022/11/21 07:33:23;;;;;;;19.92;9.55;;;;;;;0.01;59.23;100427.34;6130695;23;20018;-81
2022/11/21 07:35:53;;;;;;;23.08;9.68;;;;;;;-0.07;58.75;100391.19;6162824;23;20041;-80
2022/11/21 07:38:19;;;;;;;20.20;8.93;;;;;;;0.05;58.35;100428.38;6141289;23;20025;-79
2022/11/21 07:40:45;;;;;;;19.08;9.32;;;;;;;-0.95;57.59;100282.47;6164959;23;20076;-79
2022/11/21 07:43:14;;;;;;;20.05;9.48;;;;;;;-0.95;57.98;100278.22;6135961;23;20065;-80
2022/11/21 07:45:43;;;;;;;17.83;8.68;;;;;;;-0.40;58.06;100362.44;6114786;23;20018;-80
2022/11/21 07:48:11;;;;;;;18.55;9.25;;;;;;;-0.07;58.07;100434.69;6143466;23;20044;-80
2022/11/21 07:50:43;;;;;;;22.88;9.95;;;;;;;-1.31;57.31;100223.78;6137882;23;20021;-80
2022/11/21 07:53:21;;;;;;;24.10;9.57;;;;;;;-0.07;58.46;100423.59;6143377;23;20033;-78
2022/11/21 07:55:47;;;;;;;23.55;10.13;;;;;;;-0.07;58.75;100385.22;6113783;23;20022;-82
2022/11/21 07:58:15;;;;;;;28.13;11.65;;;;;;;0.21;58.38;100417.97;6157585;23;20025;-77
2022/11/21 08:00:42;;;;;;;25.60;11.52;;;;;;;0.30;58.55;100420.06;6118886;23;20073;-78
2022/11/21 08:03:15;;;;;;;22.45;10.60;;;;;;;-1.02;57.24;100184.25;6143704;23;20014;-80
2022/11/21 08:06:02;;;;;;;26.23;10.48;;;;;;;-0.58;57.61;100278.13;6117860;23;20018;-80
2022/11/21 08:08:34;;;;;;;33.15;14.43;;;;;;;-0.44;57.44;100301.75;6119378;23;20022;-77
2022/11/21 08:11:04;;;;;;;31.35;11.98;;;;;;;0.59;57.41;100421.28;6116711;23;20032;-77
2022/11/21 08:13:31;;;;;;;28.60;11.88;;;;;;;0.67;57.07;100413.91;6139984;23;20463;-81
2022/11/21 08:16:00;;;;;;;22.90;10.07;;;;;;;0.43;55.58;100409.53;6111119;23;20022;-79
2022/11/21 08:18:29;;;;;;;26.10;10.98;;;;;;;0.33;57.91;100412.50;6139533;23;20097;-81
2022/11/21 08:20:55;;;;;;;24.45;10.60;;;;;;;0.45;57.73;100418.13;6146656;23;20045;-79
2022/11/21 08:23:24;;;;;;;25.88;11.60;;;;;;;0.62;57.46;100418.00;6123882;23;20005;-80
2022/11/21 08:25:57;;;;;;;21.17;9.25;;;;;;;0.63;57.12;100414.63;6120558;23;20013;-78
2022/11/21 08:28:23;;;;;;;21.17;9.73;;;;;;;0.33;57.13;100370.69;6143553;23;20033;-79
2022/11/21 08:31:14;;;;;;;21.85;9.90;;;;;;;0.62;57.52;100402.63;6143922;23;20049;-80
2022/11/21 08:33:41;;;;;;;19.92;9.15;;;;;;;0.65;55.66;100427.47;6146700;23;20013;-80
2022/11/21 08:36:08;;;;;;;22.40;10.07;;;;;;;-0.10;56.86;100318.53;6098802;23;20041;-80
2022/11/21 08:38:34;;;;;;;16.70;8.20;;;;;;;0.32;57.27;100397.09;6149327;23;20010;-79
2022/11/21 08:43:55;;;;;;;19.98;9.35;;;;;;;0.72;56.90;100391.06;6153933;23;20002;-78
2022/11/21 08:46:26;;;;;;;19.38;8.63;;;;;;;0.71;56.91;100384.19;6152142;23;20073;-79
2022/11/21 08:48:54;;;;;;;18.52;8.68;;;;;;;0.82;56.72;100418.78;6145184;23;20013;-80
2022/11/21 08:51:20;;;;;;;16.88;8.85;;;;;;;0.75;56.52;100409.13;6148809;23;20017;-77
2022/11/21 08:53:47;;;;;;;16.85;7.35;;;;;;;0.70;56.06;100406.34;6118215;23;20017;-80
2022/11/21 08:56:13;;;;;;;20.13;8.23;;;;;;;0.39;55.97;100356.44;6170159;23;20041;-77
2022/11/21 08:58:41;;;;;;;17.77;8.68;;;;;;;0.50;55.39;100385.06;6172006;23;20033;-78
2022/11/21 09:01:07;;;;;;;18.45;8.70;;;;;;;0.58;56.47;100404.16;6139393;23;20096;-80
2022/11/21 09:03:33;;;;;;;18.83;8.65;;;;;;;0.49;56.16;100388.44;6133718;23;20029;-81
2022/11/21 09:05:59;;;;;;;16.98;8.13;;;;;;;0.14;56.30;100334.06;6157705;23;20144;-81
2022/11/21 09:08:25;;;;;;;17.48;8.13;;;;;;;0.54;56.04;100391.16;6107801;23;20021;-80
2022/11/21 09:10:52;;;;;;;17.65;8.05;;;;;;;0.35;55.59;100375.06;6134317;23;20053;-79
2022/11/21 09:13:18;;;;;;;18.00;8.60;;;;;;;0.25;56.80;100361.00;6134745;23;20021;-81
2022/11/21 09:18:28;;;;;;;14.60;7.97;;;;;;;0.05;56.56;100349.03;6134453;23;20036;-82
2022/11/21 09:20:54;;;;;;;17.00;8.05;;;;;;;0.32;56.45;100369.78;6137322;23;20468;-80
2022/11/21 09:23:20;;;;;;;17.33;8.73;;;;;;;0.53;55.46;100394.53;6137177;23;20017;-81
2022/11/21 09:25:46;;;;;;;19.40;9.27;;;;;;;0.49;56.01;100375.63;6133841;23;20045;-81
2022/11/21 09:28:13;;;;;;;18.58;9.77;;;;;;;0.51;56.44;100391.94;6132953;23;20025;-82
2022/11/21 09:30:41;;;;;;;19.02;8.93;;;;;;;0.57;56.22;100378.50;6155587;23;20053;-81
2022/11/21 09:33:10;;;;;;;15.00;7.28;;;;;;;0.56;55.87;100374.19;6129886;23;20428;-79
2022/11/21 09:35:36;;;;;;;14.50;7.30;;;;;;;0.63;55.68;100371.06;6103736;23;20025;-81
2022/11/21 09:38:03;;;;;;;13.70;6.97;;;;;;;0.74;55.80;100390.28;6129137;23;20025;-80
2022/11/21 09:40:33;;;;;;;16.25;6.90;;;;;;;0.74;56.06;100392.00;6127896;23;20049;-81
2022/11/21 09:43:22;;;;;;;15.38;7.35;;;;;;;0.70;55.37;100354.25;6128042;23;20021;-81
2022/11/21 09:45:50;;;;;;;16.58;7.78;;;;;;;0.83;55.52;100376.97;6130081;23;20017;-83
2022/11/21 09:48:35;;;;;;;14.98;7.28;;;;;;;0.45;54.91;100319.97;6102409;23;20017;-81
2022/11/21 09:51:09;;;;;;;13.32;6.78;;;;;;;0.79;55.34;100364.00;6130134;23;20014;-83
2022/11/21 09:54:03;;;;;;;17.38;7.95;;;;;;;0.47;55.53;100285.06;6132401;23;20071;-81
2022/11/21 09:56:33;;;;;;;16.02;7.35;;;;;;;0.84;54.27;100368.47;6127504;23;20021;-82
2022/11/21 09:59:20;;;;;;;16.67;8.63;;;;;;;0.79;55.01;100369.97;6135904;23;20021;-82
2022/11/21 10:01:46;;;;;;;17.42;8.25;;;;;;;0.81;55.16;100363.22;6135124;23;20025;-80
2022/11/21 10:04:12;;;;;;;15.52;8.25;;;;;;;0.82;55.53;100357.28;6135433;23;20022;-80
2022/11/21 10:07:06;;;;;;;14.93;8.07;;;;;;;0.70;54.92;100375.59;6135847;23;20009;-79
2022/11/21 10:10:03;;;;;;;15.93;7.65;;;;;;;0.45;54.99;100325.94;6134216;23;20372;-79
2022/11/21 10:12:56;;;;;;;15.55;8.00;;;;;;;0.80;55.26;100358.06;6139209;23;20073;-79
2022/11/21 10:15:50;;;;;;;12.18;6.63;;;;;;;0.81;55.01;100358.09;6138298;23;20022;-82
2022/11/21 10:18:30;;;;;;;14.93;7.82;;;;;;;0.49;54.90;100360.25;6133204;23;20076;-80
2022/11/21 10:21:36;;;;;;;14.65;7.70;;;;;;;0.50;53.92;100356.88;6130971;23;20018;-82
2022/11/21 10:24:21;;;;;;;14.93;8.18;;;;;;;0.67;55.36;100351.56;6131492;23;20016;-81
2022/11/21 10:27:01;;;;;;;16.23;8.55;;;;;;;0.70;54.18;100355.09;6130823;23;20021;-84
2022/11/21 10:30:05;;;;;;;14.63;7.15;;;;;;;0.58;55.03;100367.44;6102759;23;20025;-82
2022/11/21 10:32:41;;;;;;;12.90;6.53;;;;;;;0.58;53.67;100359.75;6126936;23;20024;-79
2022/11/21 10:35:46;;;;;;;14.93;7.57;;;;;;;0.26;53.82;100342.25;6126814;23;20025;-81
2022/11/21 10:38:27;;;;;;;15.00;7.50;;;;;;;-1.18;54.79;100079.63;6127124;23;20022;-81
2022/11/21 10:40:59;;;;;;;16.13;7.63;;;;;;;0.59;54.87;100334.19;6126422;23;20033;-79
2022/11/21 10:46:28;;;;;;;15.45;8.00;;;;;;;0.55;54.83;100311.81;6126963;23;20364;-80
2022/11/21 10:49:03;;;;;;;14.02;7.40;;;;;;;0.44;55.15;100319.06;6127749;23;20032;-81
2022/11/21 10:52:03;;;;;;;14.95;7.88;;;;;;;0.40;54.65;100334.25;6153681;23;20022;-81
2022/11/21 10:55:11;;;;;;;16.90;8.73;;;;;;;0.45;55.14;100331.06;6153377;23;20018;-81
2022/11/21 10:57:54;;;;;;;13.65;7.43;;;;;;;0.74;55.15;100321.13;6153362;23;20137;-80
2022/11/21 11:00:29;;;;;;;13.75;7.07;;;;;;;-0.16;55.07;100134.97;6108365;23;20014;-81
2022/11/21 11:03:18;;;;;;;13.85;6.72;;;;;;;0.79;54.69;100277.72;6127079;23;20048;-80
2022/11/21 11:05:56;;;;;;;15.02;7.00;;;;;;;0.92;54.11;100311.53;6142222;23;20417;-79
2022/11/21 11:08:27;;;;;;;14.15;6.60;;;;;;;0.45;53.73;100259.34;6169192;23;20086;-81
2022/11/21 11:11:12;;;;;;;15.85;7.88;;;;;;;0.33;53.73;100260.59;6148594;23;20033;-81
2022/11/21 11:14:04;;;;;;;13.32;7.45;;;;;;;0.55;54.63;100306.69;6140903;23;20070;-80
2022/11/21 11:16:38;;;;;;;13.88;6.93;;;;;;;0.25;54.61;100227.88;6134451;23;20022;-80
2022/11/21 11:19:19;;;;;;;12.50;7.37;;;;;;;-0.54;54.32;100111.25;6108293;23;20021;-80
2022/11/21 11:21:49;;;;;;;13.68;7.15;;;;;;;-0.92;54.49;100030.53;6106139;23;20249;-81
2022/11/21 11:24:56;;;;;;;14.77;7.78;;;;;;;-0.84;54.09;100045.31;6108336;23;20364;-79
2022/11/21 11:27:41;;;;;;;15.45;7.25;;;;;;;-0.73;52.84;100113.06;6104979;23;20025;-80
2022/11/21 11:30:14;;;;;;;;;;;;;;;0.24;54.62;100302.91;6131281;23;20021;-81
2022/11/21 11:32:57;;;;;;;13.95;6.90;;;;;;;-0.52;54.51;100187.22;6105508;23;19913;-80
2022/11/21 11:35:38;;;;;;;13.68;6.57;;;;;;;0.06;53.28;100299.59;6135415;23;20013;-83
2022/11/21 11:38:31;;;;;;;13.63;6.18;;;;;;;-0.12;53.91;100292.91;6106765;23;20069;-83
2022/11/21 11:47:29;;;;;;;13.23;6.53;;;;;;;-1.10;54.34;100189.00;6138621;23;20077;-78
2022/11/21 11:48:09;;;;;;;16.83;7.65;;;;;;;-0.13;55.09;100290.28;6124201;23;20014;-82
2022/11/21 11:50:59;;;;;;;18.05;8.68;;;;;;;-0.23;55.21;100261.75;6106673;23;20022;-80
2022/11/21 11:54:21;;;;;;;;;;;;;;;;;;;;;